createdAt,value
2023-03-04T00:01:16.234Z,22.10
2023-03-04T00:03:42.873Z,22.10
2023-03-04T00:06:09.500Z,22.10
2023-03-04T00:08:36.168Z,22.00
2023-03-04T00:11:02.749Z,22.00
2023-03-04T00:13:29.439Z,22.10
2023-03-04T00:15:56.005Z,22.00
2023-03-04T00:18:22.678Z,22.00
2023-03-04T00:20:50.457Z,22.10
2023-03-04T00:23:17.065Z,22.10
2023-03-04T00:25:44.976Z,21.90
2023-03-04T00:28:11.533Z,22.00
2023-03-04T00:30:38.075Z,21.90
2023-03-04T00:33:04.657Z,21.90
2023-03-04T00:35:31.229Z,21.90
2023-03-04T00:37:57.919Z,21.90
2023-03-04T00:40:24.461Z,22.00
2023-03-04T00:42:51.040Z,21.90
2023-03-04T00:45:17.649Z,21.90
2023-03-04T00:47:44.196Z,21.80
2023-03-04T00:50:11.636Z,21.90
2023-03-04T00:52:38.182Z,21.90
2023-03-04T00:55:05.461Z,21.80
2023-03-04T00:57:32.053Z,21.90
2023-03-04T00:59:58.601Z,21.90
2023-03-04T01:02:25.310Z,21.80
2023-03-04T01:04:51.903Z,21.80
2023-03-04T01:07:18.598Z,21.80
2023-03-04T01:09:45.230Z,21.80
2023-03-04T01:12:12.195Z,21.80
2023-03-04T01:14:38.826Z,21.80
2023-03-04T01:17:05.445Z,21.80
2023-03-04T01:19:32.136Z,21.80
2023-03-04T01:21:58.683Z,21.70
2023-03-04T01:24:25.402Z,21.70
2023-03-04T01:26:51.992Z,21.60
2023-03-04T01:29:18.553Z,21.70
2023-03-04T01:31:45.100Z,21.60
2023-03-04T01:34:11.772Z,21.60
2023-03-04T01:36:38.386Z,21.50
2023-03-04T01:39:05.516Z,21.60
2023-03-04T01:41:32.470Z,21.50
2023-03-04T01:44:02.222Z,21.50
2023-03-04T01:46:30.537Z,21.50
2023-03-04T01:48:57.603Z,21.60
2023-03-04T01:51:24.645Z,21.50
2023-03-04T01:53:53.414Z,21.40
2023-03-04T01:56:24.899Z,21.50
2023-03-04T01:59:21.417Z,21.40
2023-03-04T02:01:54.111Z,21.40
2023-03-04T02:04:24.594Z,21.30
2023-03-04T02:06:51.895Z,21.40
2023-03-04T02:09:19.793Z,21.40
2023-03-04T02:11:47.563Z,21.30
2023-03-04T02:14:15.540Z,21.30
2023-03-04T02:16:42.240Z,21.40
2023-03-04T02:19:46.342Z,21.30
2023-03-04T02:22:12.918Z,21.40
2023-03-04T02:24:45.050Z,21.30
2023-03-04T02:27:12.157Z,21.30
2023-03-04T02:29:38.790Z,21.30
2023-03-04T02:32:05.528Z,21.20
2023-03-04T02:34:35.307Z,21.30
2023-03-04T02:37:03.635Z,21.20
2023-03-04T02:39:44.280Z,21.20
2023-03-04T02:42:11.608Z,21.20
2023-03-04T02:44:41.684Z,21.10
2023-03-04T02:47:10.881Z,21.20
2023-03-04T02:49:40.368Z,21.20
2023-03-04T02:52:14.661Z,21.20
2023-03-04T02:54:41.913Z,21.10
2023-03-04T02:57:11.547Z,21.10
2023-03-04T02:59:39.769Z,21.10
2023-03-04T03:02:07.756Z,21.10
2023-03-04T03:04:36.505Z,21.10
2023-03-04T03:07:03.169Z,21.10
2023-03-04T03:09:29.725Z,21.10
2023-03-04T03:11:56.387Z,21.10
2023-03-04T03:14:23.028Z,21.00
2023-03-04T03:16:49.610Z,21.00
2023-03-04T03:19:16.166Z,21.00
2023-03-04T03:21:42.735Z,21.00
2023-03-04T03:24:09.360Z,21.10
2023-03-04T03:26:36.001Z,20.90
2023-03-04T03:29:02.612Z,21.00
2023-03-04T03:31:29.256Z,21.00
2023-03-04T03:33:55.838Z,21.00
2023-03-04T03:36:22.442Z,20.90
2023-03-04T03:38:49.010Z,20.90
2023-03-04T03:41:15.568Z,20.90
2023-03-04T03:43:42.147Z,20.90
2023-03-04T03:46:08.782Z,20.90
2023-03-04T03:48:35.348Z,20.90
2023-03-04T03:51:02.020Z,20.80
2023-03-04T03:53:28.588Z,20.80
2023-03-04T03:55:55.159Z,20.90
2023-03-04T03:58:21.791Z,20.80
2023-03-04T04:00:48.398Z,20.80
2023-03-04T04:03:15.948Z,20.80
2023-03-04T04:05:42.553Z,20.70
2023-03-04T04:08:16.481Z,20.80
2023-03-04T04:10:43.689Z,20.70
2023-03-04T04:13:11.144Z,20.80
2023-03-04T04:15:38.689Z,20.80
2023-03-04T04:18:06.665Z,20.70
2023-03-04T04:20:33.650Z,20.70
2023-03-04T04:23:00.501Z,20.80
2023-03-04T04:25:27.224Z,20.80
2023-03-04T04:27:53.879Z,20.70
2023-03-04T04:30:20.570Z,20.80
2023-03-04T04:32:47.189Z,20.90
2023-03-04T04:35:13.783Z,20.90
2023-03-04T04:37:40.353Z,20.80
2023-03-04T04:40:07.481Z,20.80
2023-03-04T04:42:34.108Z,20.90
2023-03-04T04:45:00.681Z,20.90
2023-03-04T04:47:27.297Z,20.90
2023-03-04T04:49:53.859Z,20.90
2023-03-04T04:52:20.478Z,20.80
2023-03-04T04:54:47.097Z,20.70
2023-03-04T04:57:13.639Z,20.80
2023-03-04T04:59:40.269Z,20.70
2023-03-04T05:02:06.823Z,20.80
2023-03-04T05:04:33.434Z,20.80
2023-03-04T05:07:00.017Z,20.70
2023-03-04T05:09:26.604Z,20.80
2023-03-04T05:11:53.556Z,20.70
2023-03-04T05:14:20.231Z,20.80
2023-03-04T05:16:46.851Z,20.80
2023-03-04T05:19:13.513Z,20.80
2023-03-04T05:21:40.198Z,20.90
2023-03-04T05:24:07.965Z,20.80
2023-03-04T05:26:35.261Z,20.90
2023-03-04T05:29:01.844Z,20.80
2023-03-04T05:31:28.527Z,20.80
2023-03-04T05:33:55.134Z,20.90
2023-03-04T05:36:21.777Z,20.80
2023-03-04T05:38:48.358Z,20.90
2023-03-04T05:41:14.944Z,20.90
2023-03-04T05:43:42.881Z,20.80
2023-03-04T05:46:15.108Z,20.80
2023-03-04T05:48:42.057Z,20.90
2023-03-04T05:51:08.854Z,20.90
2023-03-04T05:53:36.934Z,20.90
2023-03-04T05:56:11.216Z,20.90
2023-03-04T05:58:38.275Z,20.90
2023-03-04T06:01:05.439Z,21.00
2023-03-04T06:03:32.561Z,20.90
2023-03-04T06:05:59.594Z,21.00
2023-03-04T06:08:26.968Z,20.90
2023-03-04T06:10:55.882Z,20.90
2023-03-04T06:13:23.032Z,20.90
2023-03-04T06:15:57.854Z,20.80
2023-03-04T06:18:26.129Z,20.90
2023-03-04T06:21:00.738Z,21.00
2023-03-04T06:23:27.931Z,21.00
2023-03-04T06:25:56.569Z,21.00
2023-03-04T06:28:23.665Z,21.00
2023-03-04T06:30:54.347Z,21.00
2023-03-04T06:33:21.077Z,21.00
2023-03-04T06:35:48.480Z,21.00
2023-03-04T06:38:15.100Z,21.00
2023-03-04T06:40:41.736Z,21.10
2023-03-04T06:43:08.294Z,21.10
2023-03-04T06:45:34.871Z,21.10
2023-03-04T06:48:01.438Z,21.10
2023-03-04T06:50:28.067Z,21.10
2023-03-04T06:52:56.871Z,21.20
2023-03-04T06:55:23.988Z,21.30
2023-03-04T06:57:50.935Z,21.20
2023-03-04T07:00:18.384Z,21.20
2023-03-04T07:02:45.291Z,21.10
2023-03-04T07:05:11.898Z,21.20
2023-03-04T07:07:38.709Z,21.20
2023-03-04T07:10:06.065Z,21.20
2023-03-04T07:12:32.826Z,21.20
2023-03-04T07:14:59.410Z,21.20
2023-03-04T07:17:26.120Z,21.20
2023-03-04T07:19:52.695Z,21.20
2023-03-04T07:22:19.327Z,21.20
2023-03-04T07:24:45.918Z,21.30
2023-03-04T07:27:12.545Z,21.40
2023-03-04T07:29:39.178Z,21.30
2023-03-04T07:32:09.894Z,21.40
2023-03-04T07:34:36.648Z,21.30
2023-03-04T07:37:03.600Z,21.40
2023-03-04T07:39:30.209Z,21.40
2023-03-04T07:41:56.777Z,21.40
2023-03-04T07:44:23.351Z,21.40
2023-03-04T07:46:50.047Z,21.40
2023-03-04T07:49:16.662Z,21.40
2023-03-04T07:51:43.364Z,21.50
2023-03-04T07:54:10.291Z,21.50
2023-03-04T07:56:36.904Z,21.50
2023-03-04T07:59:03.587Z,21.60
2023-03-04T08:01:33.627Z,21.70
2023-03-04T08:04:01.166Z,21.50
2023-03-04T08:06:29.903Z,21.60
2023-03-04T08:08:59.510Z,21.60
2023-03-04T08:11:27.666Z,21.60
2023-03-04T08:13:54.584Z,21.60
2023-03-04T08:16:23.359Z,21.70
2023-03-04T08:18:54.710Z,21.80
2023-03-04T08:21:23.615Z,21.80
2023-03-04T08:23:51.450Z,21.80
2023-03-04T08:26:20.159Z,21.70
2023-03-04T08:28:47.167Z,21.70
2023-03-04T08:31:15.107Z,21.60
2023-03-04T08:33:42.269Z,21.70
2023-03-04T08:36:09.559Z,21.60
2023-03-04T08:38:36.232Z,21.80
2023-03-04T08:41:04.005Z,21.80
2023-03-04T08:43:30.858Z,21.90
2023-03-04T08:45:57.531Z,21.80
2023-03-04T08:48:24.255Z,21.80
2023-03-04T08:50:51.542Z,21.80
2023-03-04T08:53:19.330Z,21.80
2023-03-04T08:55:46.368Z,21.80
2023-03-04T08:58:13.380Z,21.80
2023-03-04T09:00:43.825Z,21.90
2023-03-04T09:03:12.721Z,21.80
2023-03-04T09:05:39.467Z,21.80
2023-03-04T09:08:06.669Z,21.80
2023-03-04T09:10:33.805Z,21.90
2023-03-04T09:13:01.665Z,21.80
2023-03-04T09:15:28.739Z,21.80
2023-03-04T09:17:55.676Z,21.90
2023-03-04T09:20:23.098Z,21.80
2023-03-04T09:22:49.794Z,21.90
2023-03-04T09:25:16.452Z,21.80
2023-03-04T09:27:43.111Z,21.80
2023-03-04T09:30:10.380Z,21.90
2023-03-04T09:32:37.426Z,21.90
2023-03-04T09:35:04.790Z,21.80
2023-03-04T09:37:31.616Z,21.90
2023-03-04T09:39:58.189Z,21.90
2023-03-04T09:42:33.076Z,22.00
2023-03-04T09:45:00.514Z,21.90
2023-03-04T09:47:28.345Z,21.90
2023-03-04T09:49:58.603Z,21.90
2023-03-04T10:07:28.007Z,22.00
2023-03-04T10:10:02.365Z,22.00
2023-03-04T10:12:32.908Z,21.90
2023-03-04T10:15:04.215Z,21.80
2023-03-04T10:17:40.648Z,21.90
2023-03-04T10:20:11.307Z,21.80
2023-03-04T10:22:44.129Z,21.90
2023-03-04T10:25:31.303Z,22.00
2023-03-04T10:28:06.322Z,22.00
2023-03-04T10:31:27.163Z,22.10
2023-03-04T10:33:53.744Z,22.10
2023-03-04T10:36:36.385Z,22.10
2023-03-04T10:39:07.506Z,22.20
2023-03-04T10:41:34.276Z,22.20
2023-03-04T10:44:04.325Z,22.30
2023-03-04T10:46:31.951Z,22.30
2023-03-04T10:48:58.923Z,22.20
2023-03-04T10:51:28.503Z,22.30
2023-03-04T10:54:15.042Z,22.30
2023-03-04T10:56:46.203Z,22.30
2023-03-04T10:59:33.282Z,22.30
2023-03-04T11:02:01.136Z,22.30
2023-03-04T11:04:34.018Z,22.30
2023-03-04T11:07:00.632Z,22.20
2023-03-04T11:09:29.804Z,22.20
2023-03-04T11:11:59.863Z,22.30
2023-03-04T11:14:39.929Z,22.20
2023-03-04T11:17:25.021Z,22.30
2023-03-04T11:20:04.277Z,22.30
2023-03-04T11:22:32.323Z,22.30
2023-03-04T11:25:05.528Z,22.30
2023-03-04T11:27:44.397Z,22.40
2023-03-04T11:30:34.932Z,22.20
2023-03-04T11:33:11.805Z,22.30
2023-03-04T11:35:48.197Z,22.30
2023-03-04T11:38:26.981Z,22.20
2023-03-04T11:41:25.392Z,22.40
2023-03-04T11:43:52.164Z,22.20
2023-03-04T11:46:35.675Z,22.20
2023-03-04T11:49:32.394Z,22.30
2023-03-04T11:52:22.561Z,22.20
2023-03-04T11:55:08.243Z,22.30
2023-03-04T11:57:56.264Z,22.30
2023-03-04T12:00:35.703Z,22.30
2023-03-04T12:03:33.236Z,22.30
2023-03-04T12:06:16.464Z,22.40
2023-03-04T12:08:49.327Z,22.40
2023-03-04T12:11:54.145Z,22.30
2023-03-04T12:14:34.827Z,22.40
2023-03-04T12:17:12.306Z,22.30
2023-03-04T12:20:04.558Z,22.40
2023-03-04T12:22:44.420Z,22.40
2023-03-04T12:25:35.936Z,22.40
2023-03-04T12:28:40.452Z,22.40
2023-03-04T12:31:46.037Z,22.40
2023-03-04T12:34:28.912Z,22.50
2023-03-04T12:37:20.625Z,22.40
2023-03-04T12:40:12.349Z,22.40
2023-03-04T12:43:03.131Z,22.40
2023-03-04T12:45:59.277Z,22.30
2023-03-04T12:48:51.599Z,22.40
2023-03-04T12:51:44.416Z,22.40
2023-03-04T12:54:28.045Z,22.50
2023-03-04T12:57:02.442Z,22.50
2023-03-04T12:59:36.614Z,22.60
2023-03-04T13:02:29.565Z,22.60
2023-03-04T13:05:19.577Z,22.60
2023-03-04T13:08:11.294Z,22.60
2023-03-04T13:10:37.929Z,22.70
2023-03-04T13:13:04.716Z,22.70
2023-03-04T13:15:33.198Z,22.70
2023-03-04T13:18:22.004Z,22.70
2023-03-04T13:21:23.204Z,22.70
2023-03-04T13:23:50.773Z,22.80
2023-03-04T13:26:36.752Z,22.80
2023-03-04T13:29:30.846Z,22.80
2023-03-04T13:32:03.448Z,22.70
2023-03-04T13:34:52.853Z,22.70
2023-03-04T13:37:32.927Z,22.70
2023-03-04T13:40:22.424Z,22.80
2023-03-04T13:42:50.119Z,22.60
2023-03-04T13:45:35.894Z,22.50
2023-03-04T13:48:08.009Z,22.50
2023-03-04T13:50:41.665Z,22.50
2023-03-04T13:53:33.097Z,22.50
2023-03-04T13:56:08.219Z,22.50
2023-03-04T13:58:36.128Z,22.50
2023-03-04T14:01:03.577Z,22.50
2023-03-04T14:03:31.739Z,22.50
2023-03-04T14:06:23.341Z,22.50
2023-03-04T14:08:51.631Z,22.40
2023-03-04T14:11:38.533Z,22.50
2023-03-04T14:14:07.962Z,22.40
2023-03-04T14:16:40.714Z,22.50
2023-03-04T14:19:16.196Z,22.40
2023-03-04T14:21:46.666Z,22.40
2023-03-04T14:24:16.432Z,22.50
2023-03-04T14:26:43.085Z,22.60
2023-03-04T14:29:25.808Z,22.70
2023-03-04T14:31:53.872Z,22.50
2023-03-04T14:34:35.690Z,22.60
2023-03-04T14:37:04.934Z,22.60
2023-03-04T14:39:35.738Z,22.60
2023-03-04T14:42:10.374Z,22.60
2023-03-04T14:44:49.072Z,22.60
2023-03-04T14:47:44.158Z,22.70
2023-03-04T14:50:17.069Z,22.60
2023-03-04T14:52:46.517Z,22.60
2023-03-04T14:55:25.042Z,22.70
2023-03-04T14:57:58.492Z,22.60
2023-03-04T15:00:32.052Z,22.60
2023-03-04T15:03:17.003Z,22.60
2023-03-04T15:05:43.613Z,22.60
2023-03-04T15:08:27.829Z,22.70
2023-03-04T15:11:00.124Z,22.60
2023-03-04T15:13:43.179Z,22.70
2023-03-04T15:16:13.062Z,22.90
2023-03-04T15:18:53.678Z,22.80
2023-03-04T15:21:20.214Z,22.90
2023-03-04T15:23:46.947Z,22.80
2023-03-04T15:26:14.070Z,22.80
2023-03-04T15:28:41.950Z,22.90
2023-03-04T15:31:19.848Z,22.90
2023-03-04T15:33:46.874Z,22.90
2023-03-04T15:36:17.776Z,22.90
2023-03-04T15:38:48.737Z,22.90
2023-03-04T15:41:21.371Z,22.90
2023-03-04T15:43:47.990Z,23.00
2023-03-04T15:46:16.878Z,22.90
2023-03-04T15:48:45.508Z,22.90
2023-03-04T15:51:22.697Z,22.90
2023-03-04T15:53:59.585Z,22.90
2023-03-04T15:56:33.621Z,22.80
2023-03-04T15:59:09.611Z,23.00
2023-03-04T16:01:36.217Z,23.00
2023-03-04T16:04:02.883Z,23.10
2023-03-04T16:06:32.244Z,23.20
2023-03-04T16:08:59.980Z,23.20
2023-03-04T16:11:29.516Z,23.40
2023-03-04T16:13:56.434Z,23.60
2023-03-04T16:16:23.005Z,23.80
2023-03-04T16:18:49.605Z,23.60
2023-03-04T16:21:19.511Z,23.60
2023-03-04T16:23:48.990Z,23.40
2023-03-04T16:26:18.888Z,23.40
2023-03-04T16:28:45.609Z,23.40
2023-03-04T16:31:14.121Z,23.30
2023-03-04T16:33:40.884Z,23.30
2023-03-04T16:36:15.123Z,23.30
2023-03-04T16:38:42.878Z,23.30
2023-03-04T16:41:13.136Z,23.30
2023-03-04T16:43:41.008Z,23.20
2023-03-04T16:46:08.186Z,23.40
2023-03-04T16:48:35.228Z,23.30
2023-03-04T16:51:09.993Z,23.30
2023-03-04T16:53:38.556Z,23.30
2023-03-04T16:56:12.444Z,23.40
2023-03-04T16:58:39.150Z,23.40
2023-03-04T17:01:06.073Z,23.30
2023-03-04T17:03:33.116Z,23.40
2023-03-04T17:05:59.716Z,23.40
2023-03-04T17:08:26.280Z,23.40
2023-03-04T17:10:52.976Z,23.40
2023-03-04T17:13:19.578Z,23.30
2023-03-04T17:15:46.861Z,23.30
2023-03-04T17:18:13.612Z,23.20
2023-03-04T17:20:40.599Z,23.20
2023-03-04T17:23:07.299Z,23.30
2023-03-04T17:25:33.906Z,23.20
2023-03-04T17:28:00.488Z,23.20
2023-03-04T17:30:27.271Z,23.30
2023-03-04T17:32:54.103Z,23.20
2023-03-04T17:35:20.768Z,23.20
2023-03-04T17:37:47.472Z,23.30
2023-03-04T17:40:14.404Z,23.30
2023-03-04T17:42:42.418Z,23.20
2023-03-04T17:45:10.659Z,23.30
2023-03-04T17:47:38.012Z,23.30
2023-03-04T17:50:06.707Z,23.20
2023-03-04T17:52:33.621Z,23.30
2023-03-04T17:55:00.271Z,23.20
2023-03-04T17:57:27.164Z,23.20
2023-03-04T17:59:53.818Z,23.20
2023-03-04T18:02:20.550Z,23.20
2023-03-04T18:04:48.875Z,23.20
2023-03-04T18:07:15.468Z,23.20
2023-03-04T18:09:43.165Z,23.30
2023-03-04T18:12:09.772Z,23.40
2023-03-04T18:14:36.429Z,23.20
2023-03-04T18:17:03.023Z,23.20
2023-03-04T18:19:29.690Z,23.20
2023-03-04T18:21:56.314Z,23.30
2023-03-04T18:24:22.959Z,23.30
2023-03-04T18:26:49.717Z,23.20
2023-03-04T18:29:16.286Z,23.20
2023-03-04T18:31:43.209Z,23.30
2023-03-04T18:34:10.812Z,23.20
2023-03-04T18:36:37.374Z,23.30
2023-03-04T18:39:07.222Z,23.30
2023-03-04T18:41:34.160Z,23.20
2023-03-04T18:44:00.808Z,23.20
2023-03-04T18:46:46.922Z,23.20
2023-03-04T18:49:15.017Z,23.20
2023-03-04T18:51:41.651Z,23.10
2023-03-04T18:54:08.363Z,23.20
2023-03-04T18:56:43.128Z,23.20
2023-03-04T18:59:24.034Z,23.20
2023-03-04T19:01:54.466Z,23.20
2023-03-04T19:04:23.561Z,23.20
2023-03-04T19:06:50.196Z,23.10
2023-03-04T19:09:16.776Z,23.10
2023-03-04T19:11:43.408Z,23.00
2023-03-04T19:14:11.643Z,23.00
2023-03-04T19:16:39.820Z,23.00
2023-03-04T19:19:06.425Z,23.10
2023-03-04T19:21:38.309Z,23.00
2023-03-04T19:24:05.664Z,23.20
2023-03-04T19:26:32.363Z,23.20
2023-03-04T19:28:59.013Z,23.20
2023-03-04T19:31:25.778Z,23.30
2023-03-04T19:33:52.371Z,23.20
2023-03-04T19:36:19.002Z,23.20
2023-03-04T19:38:45.641Z,23.30
2023-03-04T19:41:17.378Z,23.30
2023-03-04T19:43:45.848Z,23.30
2023-03-04T19:46:13.372Z,23.40
2023-03-04T19:48:40.885Z,23.50
2023-03-04T19:51:15.897Z,23.60
2023-03-04T19:53:42.644Z,23.60
2023-03-04T19:56:09.532Z,23.70
2023-03-04T19:58:36.292Z,23.70
2023-03-04T20:01:03.374Z,23.70
2023-03-04T20:03:30.290Z,23.60
2023-03-04T20:06:07.555Z,23.60
2023-03-04T20:08:37.849Z,23.60
2023-03-04T20:11:11.682Z,23.70
2023-03-04T20:13:38.265Z,23.70
2023-03-04T20:16:12.561Z,23.80
2023-03-04T20:18:39.789Z,23.70
2023-03-04T20:21:07.186Z,23.70
2023-03-04T20:23:34.634Z,23.60
2023-03-04T20:26:01.824Z,23.70
2023-03-04T20:28:28.825Z,23.70
2023-03-04T20:31:13.877Z,23.70
2023-03-04T20:33:40.532Z,23.70
2023-03-04T20:36:07.316Z,23.70
2023-03-04T20:38:33.935Z,23.70
2023-03-04T20:41:00.620Z,23.70
2023-03-04T20:43:28.607Z,23.60
2023-03-04T20:45:56.248Z,23.60
2023-03-04T20:48:22.874Z,23.60
2023-03-04T20:50:49.442Z,23.60
2023-03-04T20:53:16.002Z,23.60
2023-03-04T20:55:42.574Z,23.60
2023-03-04T20:58:09.143Z,23.60
2023-03-04T21:00:38.180Z,23.60
2023-03-04T21:03:04.915Z,23.60
2023-03-04T21:05:31.496Z,23.60
2023-03-04T21:07:59.063Z,23.60
2023-03-04T21:10:25.684Z,23.60
2023-03-04T21:12:52.352Z,23.60
2023-03-04T21:15:18.987Z,23.60
2023-03-04T21:17:45.629Z,23.50
2023-03-04T21:20:15.148Z,23.60
2023-03-04T21:22:41.730Z,23.60
2023-03-04T21:25:08.820Z,23.60
2023-03-04T21:27:38.710Z,23.60
2023-03-04T21:30:05.930Z,23.60
2023-03-04T21:32:32.531Z,23.60
2023-03-04T21:34:59.201Z,23.70
2023-03-04T21:37:26.364Z,23.70
2023-03-04T21:39:53.608Z,23.70
2023-03-04T21:42:20.330Z,23.70
2023-03-04T21:44:51.401Z,23.70
2023-03-04T21:47:19.583Z,23.70
2023-03-04T21:49:47.074Z,23.70
2023-03-04T21:52:14.018Z,23.70
2023-03-04T21:54:40.642Z,23.80
2023-03-04T21:57:07.382Z,23.90
2023-03-04T21:59:34.012Z,24.00
2023-03-04T22:02:01.683Z,24.00
2023-03-04T22:04:28.383Z,24.00
2023-03-04T22:06:54.959Z,24.00
2023-03-04T22:09:21.537Z,24.00
2023-03-04T22:11:48.112Z,23.90
2023-03-04T22:14:14.748Z,23.90
2023-03-04T22:16:54.439Z,23.90
2023-03-04T22:19:27.752Z,23.90
2023-03-04T22:21:54.491Z,23.90
2023-03-04T22:24:21.806Z,23.90
2023-03-04T22:26:48.890Z,23.90
2023-03-04T22:29:15.567Z,23.90
2023-03-04T22:31:42.333Z,23.90
2023-03-04T22:34:11.913Z,23.90
2023-03-04T22:36:41.208Z,23.90
2023-03-04T22:39:10.211Z,24.00
2023-03-04T22:41:37.143Z,24.00
2023-03-04T22:44:05.944Z,23.70
2023-03-04T22:46:35.687Z,23.50
2023-03-04T22:49:04.875Z,23.60
2023-03-04T22:51:32.163Z,23.70
2023-03-04T22:53:58.821Z,23.80
2023-03-04T22:56:25.430Z,23.70
2023-03-04T22:58:52.157Z,23.80
2023-03-04T23:01:19.540Z,23.80
2023-03-04T23:03:48.131Z,23.80
2023-03-04T23:06:18.394Z,23.90
2023-03-04T23:08:47.174Z,23.80
2023-03-04T23:11:21.075Z,23.80
2023-03-04T23:13:48.745Z,23.90
2023-03-04T23:16:15.648Z,23.90
2023-03-04T23:18:46.458Z,23.80
2023-03-04T23:21:20.300Z,23.90
2023-03-04T23:23:47.566Z,23.80
2023-03-04T23:26:25.778Z,23.80
2023-03-04T23:28:53.154Z,23.80
2023-03-04T23:31:19.852Z,23.70
2023-03-04T23:33:47.752Z,23.70
2023-03-04T23:36:16.978Z,23.80
2023-03-04T23:38:45.270Z,23.90
2023-03-04T23:41:14.635Z,23.70
2023-03-04T23:43:41.311Z,23.30
2023-03-04T23:46:14.132Z,23.20
2023-03-04T23:48:43.200Z,23.20
2023-03-04T23:51:10.324Z,23.30
2023-03-04T23:53:38.929Z,23.30
2023-03-04T23:56:27.467Z,23.40
2023-03-04T23:58:54.565Z,23.40
